Time;durP1;ratioP1;P1;durP2;ratioP2;P2;SDS_P1;SDS_P2;PMS_P1;PMS_P2;Temp;Humidity;BMP_temperature;BMP_pressure;BME280_temperature;BME280_humidity;BME280_pressure;Samples;Min_cycle;Max_cycle;Signal;HPM_P1;HPM_P2
2021/12/22 00:01:25;;;;;;;14.43;9.20;;;3.00;99.90;;;;;;5072251;28;20213;-82
2021/12/22 00:03:52;;;;;;;15.95;10.90;;;3.00;99.90;;;;;;5072266;28;20234;-82
2021/12/22 00:06:22;;;;;;;13.23;9.93;;;3.00;99.90;;;;;;5073218;28;20217;-82
2021/12/22 00:08:50;;;;;;;14.68;9.52;;;3.00;99.90;;;;;;5072389;28;20267;-82
2021/12/22 00:11:17;;;;;;;12.55;8.63;;;3.00;99.90;;;;;;5072989;28;20189;-81
2021/12/22 00:13:44;;;;;;;10.27;6.95;;;3.00;99.90;;;;;;5072168;28;20265;-82
2021/12/22 00:16:11;;;;;;;11.75;8.55;;;2.90;99.90;;;;;;5072706;28;20272;-84
2021/12/22 00:18:38;;;;;;;13.63;8.90;;;3.00;99.90;;;;;;5072388;28;20296;-84
2021/12/22 00:21:05;;;;;;;10.77;8.40;;;2.90;99.90;;;;;;5072305;28;20746;-82
2021/12/22 00:23:33;;;;;;;11.38;8.95;;;3.00;99.90;;;;;;5072695;28;20220;-83
2021/12/22 00:26:00;;;;;;;13.95;7.93;;;2.90;99.90;;;;;;5076430;28;20223;-84
2021/12/22 00:28:26;;;;;;;12.27;8.55;;;2.90;99.90;;;;;;5076443;28;20221;-84
2021/12/22 00:30:53;;;;;;;9.48;7.05;;;2.90;99.90;;;;;;5076676;28;20213;-84
2021/12/22 00:33:20;;;;;;;11.65;8.23;;;2.90;99.90;;;;;;5077015;28;20217;-84
2021/12/22 00:35:47;;;;;;;8.98;7.57;;;2.90;99.90;;;;;;5076292;28;20189;-84
2021/12/22 00:38:16;;;;;;;10.55;7.75;;;2.90;99.90;;;;;;5076247;28;20708;-83
2021/12/22 00:40:46;;;;;;;11.55;8.10;;;2.80;99.90;;;;;;5075965;28;20185;-84
2021/12/22 00:43:13;;;;;;;10.45;7.93;;;2.80;99.90;;;;;;5076221;28;20200;-85
2021/12/22 00:45:40;;;;;;;10.80;7.75;;;2.90;99.90;;;;;;5076234;28;20268;-85
2021/12/22 00:48:11;;;;;;;10.27;7.38;;;2.90;99.90;;;;;;5076123;28;20192;-83
2021/12/22 00:50:40;;;;;;;11.00;7.15;;;2.90;99.90;;;;;;5076441;28;20296;-85
2021/12/22 00:53:07;;;;;;;9.45;6.65;;;2.90;99.90;;;;;;5075768;28;20646;-85
2021/12/22 00:55:33;;;;;;;10.45;7.20;;;2.80;99.90;;;;;;5076231;28;20186;-85
2021/12/22 00:58:03;;;;;;;11.18;7.60;;;2.80;99.90;;;;;;5076066;28;20192;-86
2021/12/22 01:00:30;;;;;;;11.48;7.68;;;2.80;99.90;;;;;;5076159;28;20200;-86
2021/12/22 01:02:57;;;;;;;9.60;7.13;;;2.80;99.90;;;;;;5076216;28;20189;-85
2021/12/22 01:05:24;;;;;;;12.25;7.32;;;2.80;99.90;;;;;;5075835;28;20205;-85
2021/12/22 01:07:51;;;;;;;13.40;7.95;;;2.80;99.90;;;;;;5075965;28;20239;-86
2021/12/22 01:10:19;;;;;;;11.43;6.70;;;2.80;99.90;;;;;;5075743;28;20668;-85
2021/12/22 01:12:46;;;;;;;10.63;6.07;;;2.90;99.90;;;;;;5075765;28;20692;-85
2021/12/22 01:15:14;;;;;;;8.88;6.95;;;2.80;99.90;;;;;;5075744;28;20185;-85
2021/12/22 01:17:45;;;;;;;7.10;5.78;;;2.80;99.90;;;;;;5076242;28;20201;-84
2021/12/22 01:20:20;;;;;;;7.25;6.20;;;2.80;99.90;;;;;;5075779;28;20190;-83
2021/12/22 01:22:50;;;;;;;9.80;6.00;;;2.80;99.90;;;;;;5075417;28;20219;-83
2021/12/22 01:25:19;;;;;;;10.30;6.00;;;2.80;99.90;;;;;;5075086;28;20213;-83
2021/12/22 01:27:47;;;;;;;10.00;5.70;;;2.80;99.90;;;;;;5075862;28;20192;-84
2021/12/22 01:30:19;;;;;;;10.02;6.35;;;2.80;99.90;;;;;;5075930;28;20254;-84
2021/12/22 01:32:46;;;;;;;10.05;7.03;;;2.80;99.90;;;;;;5075624;28;20185;-84
2021/12/22 01:35:15;;;;;;;11.15;7.53;;;2.80;99.90;;;;;;5074706;28;20236;-84
2021/12/22 01:37:42;;;;;;;12.45;7.55;;;2.80;99.90;;;;;;5074964;28;20269;-83
2021/12/22 01:40:12;;;;;;;11.02;7.57;;;2.90;99.90;;;;;;5075029;28;20190;-83
2021/12/22 01:42:41;;;;;;;9.43;7.60;;;2.90;99.90;;;;;;5075193;28;20268;-84
2021/12/22 01:45:27;;;;;;;14.63;8.02;;;2.90;99.90;;;;;;5075302;28;20189;-85
2021/12/22 01:50:42;;;;;;;10.45;7.20;;;2.80;99.90;;;;;;5074826;28;20282;-84
2021/12/22 01:53:32;;;;;;;12.10;7.63;;;2.80;99.90;;;;;;5074979;28;20266;-85
2021/12/22 01:56:07;;;;;;;10.38;7.10;;;2.80;99.90;;;;;;5075246;28;20228;-85
2021/12/22 01:58:36;;;;;;;11.00;7.68;;;2.80;99.90;;;;;;5074919;28;20243;-84
2021/12/22 02:01:05;;;;;;;13.57;7.80;;;2.70;99.90;;;;;;5073147;28;20193;-84
2021/12/22 02:03:33;;;;;;;12.48;7.63;;;2.80;99.90;;;;;;5075094;28;20213;-85
2021/12/22 02:06:00;;;;;;;10.95;7.82;;;2.80;99.90;;;;;;5061765;28;20283;-85
2021/12/22 02:08:26;;;;;;;9.25;7.30;;;2.80;99.90;;;;;;5074735;28;20181;-85
2021/12/22 02:10:53;;;;;;;10.93;7.10;;;2.80;99.90;;;;;;5075055;28;20671;-84
2021/12/22 02:13:24;;;;;;;11.18;8.10;;;2.80;99.90;;;;;;5074830;28;20186;-84
2021/12/22 02:15:51;;;;;;;13.80;8.52;;;2.80;99.90;;;;;;5075015;28;20196;-84
2021/12/22 02:18:20;;;;;;;11.15;7.65;;;2.80;99.90;;;;;;5074616;28;20221;-85
2021/12/22 02:20:49;;;;;;;16.42;7.90;;;2.80;99.90;;;;;;5074051;28;20600;-84
2021/12/22 02:23:17;;;;;;;12.70;7.97;;;2.80;99.90;;;;;;5074132;28;20189;-84
2021/12/22 02:25:52;;;;;;;10.02;7.95;;;2.80;99.90;;;;;;5074230;28;20704;-84
2021/12/22 02:28:23;;;;;;;12.15;8.02;;;2.70;99.90;;;;;;5074696;28;20628;-84
2021/12/22 02:30:51;;;;;;;11.98;9.00;;;2.80;99.90;;;;;;5074239;28;20309;-84
2021/12/22 02:33:23;;;;;;;10.02;8.55;;;2.80;99.90;;;;;;5073961;28;20271;-85
2021/12/22 02:36:07;;;;;;;11.23;8.40;;;2.80;99.90;;;;;;5073595;28;20714;-84
2021/12/22 02:38:36;;;;;;;11.60;8.43;;;2.80;99.90;;;;;;5073997;28;20193;-83
2021/12/22 02:41:04;;;;;;;13.13;9.10;;;2.80;99.90;;;;;;5073602;28;20284;-83
2021/12/22 02:43:33;;;;;;;16.45;9.02;;;2.90;99.90;;;;;;5073842;28;20279;-84
2021/12/22 02:46:01;;;;;;;12.57;8.82;;;2.80;99.90;;;;;;5073764;28;20196;-84
2021/12/22 02:48:32;;;;;;;13.50;8.65;;;2.80;99.90;;;;;;5073551;28;20277;-83
2021/12/22 02:51:02;;;;;;;13.25;7.70;;;2.80;99.90;;;;;;5073521;28;20233;-83
2021/12/22 02:53:38;;;;;;;11.55;9.00;;;2.80;99.90;;;;;;5058093;28;20242;-83
2021/12/22 02:56:14;;;;;;;13.20;8.70;;;2.90;99.90;;;;;;5074216;28;20219;-84
2021/12/22 02:58:48;;;;;;;15.20;8.90;;;2.90;99.90;;;;;;5073575;28;20196;-84
2021/12/22 03:01:28;;;;;;;15.82;8.50;;;2.90;99.90;;;;;;5073699;28;20193;-85
2021/12/22 03:03:58;;;;;;;14.13;8.82;;;2.90;99.90;;;;;;5073839;28;20196;-85
2021/12/22 03:06:33;;;;;;;12.23;8.30;;;2.90;99.90;;;;;;5073643;28;20213;-84
2021/12/22 03:09:00;;;;;;;12.02;9.05;;;2.90;99.90;;;;;;5073631;28;20188;-85
2021/12/22 03:11:27;;;;;;;12.18;8.75;;;2.90;99.90;;;;;;5073619;28;20292;-85
2021/12/22 03:13:54;;;;;;;12.85;9.13;;;2.90;99.90;;;;;;5073611;28;20182;-84
2021/12/22 03:16:21;;;;;;;13.50;8.57;;;2.90;99.90;;;;;;5073480;28;20220;-83
2021/12/22 03:18:47;;;;;;;13.10;9.02;;;2.90;99.90;;;;;;5073546;28;20300;-83
2021/12/22 03:21:20;;;;;;;12.05;8.73;;;2.90;99.90;;;;;;5073092;28;20652;-83
2021/12/22 03:23:51;;;;;;;14.48;8.10;;;2.90;99.90;;;;;;5073389;28;20186;-83
2021/12/22 03:26:20;;;;;;;14.07;9.00;;;2.90;99.90;;;;;;5073027;28;20679;-83
2021/12/22 03:28:47;;;;;;;13.18;8.05;;;3.00;99.90;;;;;;5072935;28;20231;-83
2021/12/22 03:31:15;;;;;;;12.02;8.32;;;2.90;99.90;;;;;;5073031;28;20718;-83
2021/12/22 03:33:42;;;;;;;12.18;8.32;;;3.00;99.90;;;;;;5073062;28;20247;-84
2021/12/22 03:36:09;;;;;;;10.15;8.30;;;3.00;99.90;;;;;;5073353;28;20217;-83
2021/12/22 03:38:36;;;;;;;9.40;8.05;;;3.00;99.90;;;;;;5073093;28;20185;-83
2021/12/22 03:41:07;;;;;;;12.25;8.07;;;3.00;99.90;;;;;;5072973;28;20189;-84
2021/12/22 03:43:34;;;;;;;12.85;8.57;;;3.00;99.90;;;;;;5073470;28;20217;-83
2021/12/22 03:46:01;;;;;;;9.82;7.68;;;3.00;99.90;;;;;;5073199;28;20221;-83
2021/12/22 03:48:28;;;;;;;12.32;8.50;;;3.00;99.90;;;;;;5072580;28;20296;-83
2021/12/22 03:50:55;;;;;;;9.57;7.55;;;3.10;99.90;;;;;;5072438;28;20251;-83
2021/12/22 03:53:22;;;;;;;14.73;7.95;;;3.10;99.90;;;;;;5072261;28;20716;-83
2021/12/22 03:55:48;;;;;;;13.73;7.97;;;3.00;99.90;;;;;;5072648;28;20269;-83
2021/12/22 03:58:16;;;;;;;9.38;7.72;;;3.00;99.90;;;;;;5072459;28;20272;-84
2021/12/22 04:00:44;;;;;;;14.13;7.72;;;3.00;99.90;;;;;;5072583;28;20223;-83
2021/12/22 04:03:16;;;;;;;9.70;7.00;;;3.10;99.90;;;;;;5072786;28;20189;-82
2021/12/22 04:05:43;;;;;;;10.63;7.07;;;3.00;99.90;;;;;;5072903;28;20193;-82
2021/12/22 04:08:11;;;;;;;15.85;6.82;;;3.00;99.90;;;;;;5073112;28;20215;-82
2021/12/22 04:10:38;;;;;;;8.30;6.50;;;3.00;99.90;;;;;;5072444;28;20640;-82
2021/12/22 04:13:05;;;;;;;8.35;6.53;;;3.00;99.90;;;;;;5072277;28;20276;-82
2021/12/22 04:15:34;;;;;;;9.25;6.45;;;3.00;99.90;;;;;;5072898;28;20224;-82
2021/12/22 04:18:01;;;;;;;9.05;6.07;;;2.90;99.90;;;;;;5072382;28;20221;-82
2021/12/22 04:20:28;;;;;;;10.57;6.15;;;2.90;99.90;;;;;;5072244;28;20247;-81
2021/12/22 04:22:55;;;;;;;7.55;5.88;;;2.90;99.90;;;;;;5072529;28;20196;-81
2021/12/22 04:25:22;;;;;;;9.32;5.82;;;2.90;99.90;;;;;;5072372;28;20231;-81
2021/12/22 04:27:49;;;;;;;8.77;4.43;;;2.90;99.90;;;;;;5072431;28;20219;-81
2021/12/22 04:30:16;;;;;;;7.05;4.72;;;2.90;99.90;;;;;;5072200;28;20227;-83
2021/12/22 04:32:43;;;;;;;5.13;3.60;;;2.80;99.90;;;;;;5072280;28;20213;-83
2021/12/22 04:35:10;;;;;;;3.80;3.50;;;2.80;99.90;;;;;;5072371;28;20304;-83
2021/12/22 04:37:37;;;;;;;7.30;3.90;;;2.80;99.90;;;;;;5072153;28;20224;-82
2021/12/22 04:40:05;;;;;;;4.90;3.78;;;2.80;99.90;;;;;;5072794;28;20217;-82
2021/12/22 04:42:32;;;;;;;6.30;3.83;;;2.80;99.90;;;;;;5072539;28;20280;-82
2021/12/22 04:45:01;;;;;;;8.48;4.00;;;2.80;99.90;;;;;;5072412;28;20190;-82
2021/12/22 04:47:27;;;;;;;5.43;3.70;;;2.80;99.90;;;;;;5072680;28;20186;-82
2021/12/22 04:49:55;;;;;;;12.73;3.78;;;2.80;99.90;;;;;;5072451;28;20268;-80
2021/12/22 04:52:24;;;;;;;5.00;3.58;;;2.80;99.90;;;;;;5072288;28;20247;-81
2021/12/22 04:55:02;;;;;;;6.75;3.65;;;2.80;99.90;;;;;;5072709;28;20186;-83
2021/12/22 04:57:29;;;;;;;5.70;4.00;;;2.70;99.90;;;;;;5072181;28;20189;-82
2021/12/22 04:59:56;;;;;;;6.07;3.90;;;2.70;99.90;;;;;;5071836;28;20272;-81
2021/12/22 05:02:22;;;;;;;5.00;3.60;;;2.70;99.90;;;;;;5071718;28;20280;-81
2021/12/22 05:04:49;;;;;;;5.88;3.47;;;2.70;99.90;;;;;;5072544;28;20228;-83
2021/12/22 05:07:16;;;;;;;4.28;3.38;;;2.60;99.90;;;;;;5071953;28;20277;-84
2021/12/22 05:09:43;;;;;;;5.88;3.67;;;2.60;99.90;;;;;;5071933;28;20272;-83
2021/12/22 05:12:10;;;;;;;6.85;4.28;;;2.60;99.90;;;;;;5075758;28;20304;-84
2021/12/22 05:14:39;;;;;;;6.88;4.07;;;2.60;99.90;;;;;;5075684;28;20217;-83
2021/12/22 05:17:06;;;;;;;7.30;4.25;;;2.60;99.90;;;;;;5075265;28;20217;-81
2021/12/22 05:19:33;;;;;;;5.75;4.50;;;2.60;99.90;;;;;;5075305;28;20185;-82
2021/12/22 05:22:00;;;;;;;6.75;4.60;;;2.60;99.90;;;;;;5075099;28;20259;-82
2021/12/22 05:24:27;;;;;;;5.60;4.53;;;2.60;99.90;;;;;;5075155;28;20277;-82
2021/12/22 05:26:54;;;;;;;5.07;4.57;;;2.50;99.90;;;;;;5074856;28;20231;-82
2021/12/22 05:29:23;;;;;;;12.02;5.45;;;2.50;99.90;;;;;;5075031;28;20217;-82
2021/12/22 05:31:54;;;;;;;6.57;4.95;;;2.50;99.90;;;;;;5075089;28;20303;-82
2021/12/22 05:34:20;;;;;;;6.15;4.95;;;2.40;99.90;;;;;;5075636;28;20281;-82
2021/12/22 05:36:47;;;;;;;7.88;5.75;;;2.40;99.90;;;;;;5075349;28;20711;-82
2021/12/22 05:39:14;;;;;;;5.63;5.00;;;2.50;99.90;;;;;;5074826;28;20189;-82
2021/12/22 05:41:42;;;;;;;10.23;5.95;;;2.50;99.90;;;;;;5075138;28;20224;-82
2021/12/22 05:44:08;;;;;;;8.27;6.47;;;2.40;99.90;;;;;;5075430;28;20602;-82
2021/12/22 05:46:35;;;;;;;8.05;6.32;;;2.50;99.90;;;;;;5075357;28;20284;-82
2021/12/22 05:49:02;;;;;;;10.73;6.00;;;2.50;99.90;;;;;;5074843;28;20196;-82
2021/12/22 05:51:32;;;;;;;5.72;5.13;;;2.50;99.90;;;;;;5074830;28;20237;-82
2021/12/22 05:53:58;;;;;;;10.93;6.85;;;2.50;99.90;;;;;;5074689;28;20182;-82
2021/12/22 05:56:25;;;;;;;8.02;6.10;;;2.50;99.90;;;;;;5074353;28;20231;-83
2021/12/22 05:58:53;;;;;;;11.77;8.20;;;2.50;99.90;;;;;;5074683;28;20185;-83
2021/12/22 06:01:20;;;;;;;17.90;12.23;;;2.40;99.90;;;;;;5074386;28;21216;-85
2021/12/22 06:03:47;;;;;;;9.63;7.97;;;2.40;99.90;;;;;;5075128;28;20216;-84
2021/12/22 06:06:13;;;;;;;8.93;6.40;;;2.30;99.90;;;;;;5074385;28;20189;-84
2021/12/22 06:08:40;;;;;;;10.20;6.97;;;2.10;99.90;;;;;;5074478;28;20228;-84
2021/12/22 06:11:06;;;;;;;12.95;7.65;;;2.00;99.90;;;;;;5075025;28;20618;-84
2021/12/22 06:13:33;;;;;;;13.00;7.75;;;1.80;99.90;;;;;;5074903;28;20217;-85
2021/12/22 06:16:01;;;;;;;10.40;7.55;;;1.70;99.90;;;;;;5075101;28;20221;-85
2021/12/22 06:18:28;;;;;;;9.25;7.18;;;1.60;99.90;;;;;;5074863;28;20186;-85
2021/12/22 06:20:58;;;;;;;11.52;7.85;;;1.60;99.90;;;;;;5074817;28;20275;-85
2021/12/22 06:23:24;;;;;;;9.88;7.28;;;1.50;99.90;;;;;;5073413;28;20228;-85
2021/12/22 06:25:52;;;;;;;16.08;8.65;;;1.40;99.90;;;;;;5074899;28;20193;-84
2021/12/22 06:28:18;;;;;;;10.82;6.68;;;1.30;99.90;;;;;;5074780;28;20610;-84
2021/12/22 06:30:45;;;;;;;11.93;7.65;;;1.20;99.90;;;;;;5074580;28;20185;-84
2021/12/22 06:33:12;;;;;;;12.40;7.90;;;1.20;99.90;;;;;;5074374;28;20307;-84
2021/12/22 06:35:39;;;;;;;10.40;7.78;;;1.10;99.90;;;;;;5074312;28;20236;-82
2021/12/22 06:38:06;;;;;;;14.90;8.45;;;1.10;99.90;;;;;;5073813;28;20280;-82
2021/12/22 06:40:33;;;;;;;9.75;7.63;;;1.00;99.90;;;;;;5074160;28;20193;-82
2021/12/22 06:42:59;;;;;;;11.25;7.90;;;1.00;99.90;;;;;;5073944;28;20703;-82
2021/12/22 06:45:26;;;;;;;9.75;7.15;;;1.00;99.90;;;;;;5057548;28;20213;-82
2021/12/22 06:47:52;;;;;;;12.43;8.23;;;0.90;99.90;;;;;;5074175;28;20216;-82
2021/12/22 06:50:20;;;;;;;15.48;7.72;;;0.90;99.90;;;;;;5074178;28;20653;-90
2021/12/22 06:52:47;;;;;;;17.58;7.90;;;0.90;99.90;;;;;;5074330;28;20244;-91
2021/12/22 06:55:13;;;;;;;12.57;8.50;;;0.90;99.90;;;;;;5078145;28;20227;-94
2021/12/22 06:57:40;;;;;;;15.82;9.07;;;0.80;99.90;;;;;;5097805;28;20193;-96
2021/12/22 07:00:09;;;;;;;17.13;8.63;;;0.80;99.90;;;;;;5098355;28;20189;-95
2021/12/22 07:02:38;;;;;;;11.75;8.68;;;0.80;99.90;;;;;;5087535;28;20185;-95
2021/12/22 07:05:06;;;;;;;16.58;9.70;;;0.70;99.90;;;;;;5079863;28;20195;-94
2021/12/22 07:07:34;;;;;;;11.43;7.65;;;0.70;99.90;;;;;;5079180;28;20209;-95
2021/12/22 07:10:00;;;;;;;12.70;8.80;;;0.70;99.90;;;;;;5075527;28;20185;-94
2021/12/22 07:12:27;;;;;;;11.38;7.63;;;0.70;99.90;;;;;;5077068;28;20255;-94
2021/12/22 07:14:54;;;;;;;14.25;9.45;;;0.60;99.90;;;;;;5076770;28;20243;-93
2021/12/22 07:17:21;;;;;;;17.90;8.55;;;0.60;99.90;;;;;;5076739;28;20215;-94
2021/12/22 07:19:47;;;;;;;14.82;9.48;;;0.60;99.90;;;;;;5076045;28;20217;-93
2021/12/22 07:22:14;;;;;;;13.98;9.00;;;0.60;99.90;;;;;;5074741;28;20246;-93
2021/12/22 07:24:42;;;;;;;12.70;8.55;;;0.60;99.90;;;;;;5073372;28;20189;-93
2021/12/22 07:27:08;;;;;;;17.70;9.25;;;0.60;99.90;;;;;;5074466;28;20272;-92
2021/12/22 07:29:35;;;;;;;16.88;9.63;;;0.60;99.90;;;;;;5074372;28;20213;-94
2021/12/22 07:32:01;;;;;;;15.40;9.18;;;0.60;99.90;;;;;;5074146;28;20208;-92
2021/12/22 07:34:34;;;;;;;18.23;9.15;;;0.60;99.90;;;;;;5074271;28;20273;-92
2021/12/22 07:37:09;;;;;;;15.45;8.95;;;0.60;99.90;;;;;;5074248;28;20189;-92
2021/12/22 07:39:36;;;;;;;15.38;9.93;;;0.60;99.90;;;;;;5074275;28;20219;-93
2021/12/22 07:42:04;;;;;;;14.57;10.02;;;0.60;99.90;;;;;;5075121;28;20189;-96
2021/12/22 07:44:31;;;;;;;21.27;8.95;;;0.70;99.90;;;;;;5083527;28;20667;-95
2021/12/22 07:46:57;;;;;;;14.20;9.18;;;0.70;99.90;;;;;;5096230;28;20169;-96
2021/12/22 07:49:24;;;;;;;18.45;8.98;;;0.70;99.90;;;;;;5096789;28;20189;-95
2021/12/22 07:51:50;;;;;;;13.88;8.95;;;0.70;99.90;;;;;;5097123;28;20185;-95
2021/12/22 07:54:17;;;;;;;17.95;10.18;;;0.80;99.90;;;;;;5097167;28;20173;-96
2021/12/22 07:56:43;;;;;;;15.55;10.13;;;0.80;99.90;;;;;;5083402;28;20185;-96
2021/12/22 07:59:11;;;;;;;17.80;9.80;;;0.80;99.90;;;;;;5084461;28;20217;-95
2021/12/22 08:01:38;;;;;;;13.07;9.65;;;0.90;99.90;;;;;;5085681;28;20197;-94
2021/12/22 08:04:04;;;;;;;14.15;9.48;;;0.90;99.90;;;;;;5088202;28;20205;-95
2021/12/22 08:06:31;;;;;;;17.30;10.13;;;0.90;99.90;;;;;;5091160;28;20197;-96
2021/12/22 08:08:58;;;;;;;12.50;9.85;;;1.00;99.90;;;;;;5088191;28;20227;-92
2021/12/22 08:11:24;;;;;;;13.57;10.13;;;1.00;99.90;;;;;;5074019;28;20280;-91
2021/12/22 08:13:51;;;;;;;12.75;8.65;;;1.00;99.90;;;;;;5074311;28;20264;-89
2021/12/22 08:16:19;;;;;;;12.85;9.82;;;1.10;99.90;;;;;;5073428;28;20656;-87
2021/12/22 08:18:45;;;;;;;15.45;10.20;;;1.10;99.90;;;;;;5073187;28;20209;-89
2021/12/22 08:21:12;;;;;;;15.30;10.98;;;1.20;99.90;;;;;;5072214;28;20653;-88
2021/12/22 08:23:39;;;;;;;17.73;10.77;;;1.20;99.90;;;;;;5072967;28;20688;-87
2021/12/22 08:26:06;;;;;;;18.08;10.43;;;1.20;99.90;;;;;;5072723;28;20185;-86
2021/12/22 08:28:33;;;;;;;18.15;9.65;;;1.30;99.90;;;;;;5072615;28;20272;-86
2021/12/22 08:31:00;;;;;;;20.38;10.95;;;1.30;99.90;;;;;;5073307;28;20276;-88
2021/12/22 08:33:31;;;;;;;16.48;10.88;;;1.40;99.90;;;;;;5056296;28;20205;-84
2021/12/22 08:38:51;;;;;;;13.23;9.82;;;1.50;99.90;;;;;;5070430;28;20196;-87
2021/12/22 08:41:17;;;;;;;15.93;11.45;;;1.50;99.90;;;;;;5072574;28;20727;-88
2021/12/22 08:43:44;;;;;;;18.42;11.25;;;1.50;99.90;;;;;;5072192;28;20276;-82
2021/12/22 08:46:11;;;;;;;20.17;11.70;;;1.60;99.90;;;;;;5074755;28;20238;-80
2021/12/22 08:48:38;;;;;;;15.65;9.90;;;1.60;99.90;;;;;;5072764;28;20636;-87
2021/12/22 08:51:05;;;;;;;17.65;11.13;;;1.60;99.90;;;;;;5072618;28;20626;-79
2021/12/22 08:53:32;;;;;;;20.80;12.15;;;1.70;99.90;;;;;;5075483;28;20300;-80
2021/12/22 08:55:58;;;;;;;18.90;11.15;;;1.70;99.90;;;;;;5075713;28;20280;-80
2021/12/22 08:58:25;;;;;;;15.40;9.80;;;1.80;99.90;;;;;;5075516;28;20731;-88
2021/12/22 09:00:51;;;;;;;21.90;10.70;;;1.80;99.90;;;;;;5075405;28;20660;-80
2021/12/22 09:03:18;;;;;;;18.23;10.95;;;1.90;99.90;;;;;;5075232;28;20280;-80
2021/12/22 09:05:46;;;;;;;17.75;9.98;;;1.90;99.90;;;;;;5075281;28;20212;-80
2021/12/22 09:08:12;;;;;;;16.40;10.25;;;2.00;99.90;;;;;;5074242;28;20914;-78
2021/12/22 09:10:39;;;;;;;20.63;10.27;;;2.10;99.90;;;;;;5065048;28;20273;-80
2021/12/22 09:13:06;;;;;;;18.45;10.55;;;2.10;99.90;;;;;;5073005;28;20267;-82
2021/12/22 09:15:32;;;;;;;15.15;9.95;;;2.20;99.90;;;;;;5058982;28;20185;-80
2021/12/22 09:17:59;;;;;;;14.38;10.70;;;2.20;99.90;;;;;;5074905;28;20274;-81
2021/12/22 09:20:26;;;;;;;15.65;10.23;;;2.30;99.90;;;;;;5074593;28;20674;-80
2021/12/22 09:22:53;;;;;;;15.27;10.20;;;2.30;99.90;;;;;;5075503;28;20720;-80
2021/12/22 09:25:20;;;;;;;12.48;9.10;;;2.30;99.90;;;;;;5075164;28;20224;-80
2021/12/22 09:27:46;;;;;;;13.55;9.93;;;2.40;99.90;;;;;;5075005;28;20648;-80
2021/12/22 09:30:13;;;;;;;16.88;10.55;;;2.40;99.90;;;;;;5075161;28;20280;-80
2021/12/22 09:32:40;;;;;;;12.77;9.27;;;2.50;99.90;;;;;;5074938;28;20771;-80
2021/12/22 09:35:09;;;;;;;14.80;9.50;;;2.50;99.90;;;;;;5059295;28;20186;-80
2021/12/22 09:37:36;;;;;;;14.45;9.27;;;2.50;99.90;;;;;;5067250;28;20182;-81
2021/12/22 09:40:05;;;;;;;17.20;9.75;;;2.50;99.90;;;;;;5074666;28;20239;-80
2021/12/22 09:42:32;;;;;;;15.00;9.57;;;2.50;99.90;;;;;;5074432;28;20193;-81
2021/12/22 09:45:01;;;;;;;14.85;8.95;;;2.50;99.90;;;;;;5074219;28;20212;-80
2021/12/22 09:47:31;;;;;;;15.45;9.40;;;2.50;99.90;;;;;;5074012;28;20280;-81
2021/12/22 09:50:09;;;;;;;12.48;9.55;;;2.50;99.90;;;;;;5074562;28;20243;-81
2021/12/22 09:52:36;;;;;;;13.05;9.27;;;2.50;99.90;;;;;;5074099;28;20329;-81
2021/12/22 09:55:07;;;;;;;14.60;9.23;;;2.60;99.90;;;;;;5074147;28;20213;-81
2021/12/22 09:57:34;;;;;;;14.00;9.82;;;2.70;99.90;;;;;;5064204;28;20193;-81
2021/12/22 10:00:01;;;;;;;15.60;10.27;;;2.70;99.90;;;;;;5074010;28;20276;-81
2021/12/22 10:02:30;;;;;;;17.77;11.77;;;2.70;99.90;;;;;;5072518;28;20556;-80
2021/12/22 10:04:58;;;;;;;14.93;10.70;;;2.70;99.90;;;;;;5074136;28;20186;-81
2021/12/22 10:07:27;;;;;;;17.30;11.60;;;2.70;99.90;;;;;;5073821;28;20216;-81
2021/12/22 10:09:56;;;;;;;19.25;12.43;;;2.70;99.90;;;;;;5074063;28;20290;-81
2021/12/22 10:12:26;;;;;;;24.00;13.60;;;2.70;99.90;;;;;;5073597;28;20291;-81
2021/12/22 10:14:55;;;;;;;19.13;13.13;;;2.70;99.90;;;;;;5073808;28;20276;-81
2021/12/22 10:17:30;;;;;;;23.40;13.20;;;2.80;99.90;;;;;;5073570;28;20193;-81
2021/12/22 10:19:58;;;;;;;24.10;13.60;;;2.70;99.90;;;;;;5073807;28;20239;-81
2021/12/22 10:22:30;;;;;;;22.52;13.77;;;2.80;99.90;;;;;;5073335;28;20345;-81
2021/12/22 10:25:03;;;;;;;21.88;14.00;;;2.80;99.90;;;;;;5073595;28;20627;-81
2021/12/22 10:27:31;;;;;;;20.45;14.27;;;2.90;99.90;;;;;;5073474;28;20186;-81
2021/12/22 10:29:58;;;;;;;20.13;13.60;;;2.80;99.90;;;;;;5073698;28;20276;-81
2021/12/22 10:32:24;;;;;;;22.88;15.15;;;2.90;99.90;;;;;;5073264;28;20241;-81
2021/12/22 10:34:59;;;;;;;21.13;14.88;;;2.90;99.90;;;;;;5073516;28;20277;-81
2021/12/22 10:37:35;;;;;;;22.92;16.02;;;2.90;99.90;;;;;;5073034;28;20246;-81
2021/12/22 10:40:18;;;;;;;27.10;14.20;;;2.90;99.90;;;;;;5073537;28;20263;-81
2021/12/22 10:42:46;;;;;;;23.65;14.45;;;2.90;99.90;;;;;;5066487;28;20276;-82
2021/12/22 10:45:14;;;;;;;20.52;14.20;;;2.90;99.90;;;;;;5073112;28;20595;-81
2021/12/22 10:50:32;;;;;;;24.23;15.05;;;3.00;99.90;;;;;;5073081;28;20187;-81
2021/12/22 10:52:59;;;;;;;22.98;14.10;;;3.00;99.90;;;;;;5072639;28;20693;-81
2021/12/22 10:55:26;;;;;;;22.75;15.25;;;3.00;99.90;;;;;;5072839;28;20220;-81
2021/12/22 10:57:54;;;;;;;20.60;14.65;;;3.00;99.90;;;;;;5071968;28;20192;-81
2021/12/22 11:00:24;;;;;;;25.67;14.95;;;3.00;99.90;;;;;;5072789;28;20189;-81
2021/12/22 11:03:02;;;;;;;19.48;13.25;;;3.00;99.90;;;;;;5073272;28;20603;-81
2021/12/22 11:05:30;;;;;;;25.10;15.23;;;3.00;99.90;;;;;;5072936;28;20242;-81
2021/12/22 11:07:58;;;;;;;22.90;15.40;;;3.00;99.90;;;;;;5072400;28;20244;-81
2021/12/22 11:10:26;;;;;;;23.92;14.50;;;3.00;99.90;;;;;;5072668;28;20280;-81
2021/12/22 11:13:05;;;;;;;19.90;13.02;;;3.00;99.90;;;;;;5072548;28;20304;-79
2021/12/22 11:15:40;;;;;;;20.55;13.15;;;3.00;99.90;;;;;;5072755;28;20615;-79
2021/12/22 11:18:09;;;;;;;26.25;13.82;;;3.00;99.90;;;;;;5072626;28;20299;-80
2021/12/22 11:20:36;;;;;;;19.98;13.60;;;3.00;99.90;;;;;;5072542;28;20192;-79
2021/12/22 11:23:12;;;;;;;23.30;14.43;;;3.00;99.90;;;;;;5072460;28;20220;-80
2021/12/22 11:25:39;;;;;;;23.48;13.63;;;3.00;99.90;;;;;;5063959;28;20212;-79
2021/12/22 11:28:07;;;;;;;22.67;14.18;;;3.00;99.90;;;;;;5072270;28;20186;-80
2021/12/22 11:30:35;;;;;;;17.13;11.77;;;3.00;99.90;;;;;;5072486;28;20619;-79
2021/12/22 11:33:02;;;;;;;18.92;11.85;;;3.00;99.90;;;;;;5070039;28;20219;-79
2021/12/22 11:35:30;;;;;;;19.73;12.95;;;3.00;99.90;;;;;;5062733;28;20193;-80
2021/12/22 11:37:57;;;;;;;19.02;12.07;;;3.00;99.90;;;;;;5069902;28;20681;-79
2021/12/22 11:40:26;;;;;;;22.27;13.57;;;3.00;99.90;;;;;;5069948;28;20275;-80
2021/12/22 11:42:52;;;;;;;21.65;13.05;;;3.00;99.90;;;;;;5070328;28;20190;-80
2021/12/22 11:45:22;;;;;;;20.30;12.27;;;3.00;99.90;;;;;;5070131;28;20303;-81
2021/12/22 11:47:51;;;;;;;19.02;13.80;;;3.10;99.90;;;;;;5070253;28;20268;-81
2021/12/22 11:50:19;;;;;;;22.95;13.70;;;3.00;99.90;;;;;;5071132;28;20228;-80
2021/12/22 11:52:55;;;;;;;24.75;15.02;;;3.10;99.90;;;;;;5071649;28;20311;-81
2021/12/22 11:55:23;;;;;;;21.33;14.20;;;3.00;99.90;;;;;;5070800;28;20192;-80
2021/12/22 11:57:51;;;;;;;22.10;12.63;;;3.00;99.90;;;;;;5071973;28;20186;-81
2021/12/22 12:00:38;;;;;;;18.95;12.05;;;3.00;99.90;;;;;;5072006;28;20295;-81
2021/12/22 12:03:22;;;;;;;21.38;11.85;;;3.00;99.90;;;;;;5071882;28;20276;-80
2021/12/22 12:06:04;;;;;;;18.92;12.35;;;3.00;99.90;;;;;;5065328;28;20178;-80
2021/12/22 12:08:34;;;;;;;17.90;11.65;;;3.00;99.90;;;;;;5071988;28;20188;-80
2021/12/22 12:11:01;;;;;;;19.83;11.60;;;3.00;99.90;;;;;;5072246;28;20243;-79
2021/12/22 12:13:43;;;;;;;14.77;10.38;;;2.90;99.90;;;;;;5071485;28;20517;-80
2021/12/22 12:22:20;;;;;;;18.10;11.63;;;2.90;99.90;;;;;;5075820;28;20749;-83
2021/12/22 12:25:06;;;;;;;15.70;11.50;;;2.90;99.90;;;;;;5070120;28;20186;-79
2021/12/22 12:27:46;;;;;;;16.88;11.45;;;3.00;99.90;;;;;;5056954;28;20744;-79
2021/12/22 12:30:17;;;;;;;18.42;12.55;;;2.90;99.90;;;;;;5069559;28;20242;-80
2021/12/22 12:33:09;;;;;;;16.00;11.52;;;2.90;99.90;;;;;;5069370;28;20181;-80
2021/12/22 12:35:39;;;;;;;16.70;13.30;;;2.90;99.90;;;;;;5066990;28;20189;-82
2021/12/22 12:38:09;;;;;;;23.52;13.18;;;2.90;99.90;;;;;;5075773;28;20289;-88
2021/12/22 12:41:13;;;;;;;20.65;12.48;;;2.90;99.90;;;;;;5075666;28;20221;-87
2021/12/22 12:44:10;;;;;;;24.98;15.10;;;2.90;99.90;;;;;;5068121;28;20197;-87
2021/12/22 12:46:53;;;;;;;22.60;14.63;;;2.90;99.90;;;;;;5075667;28;20200;-82
2021/12/22 12:49:39;;;;;;;20.05;14.13;;;2.90;99.90;;;;;;5075752;28;20643;-79
2021/12/22 12:52:09;;;;;;;18.75;13.70;;;2.90;99.90;;;;;;5075461;28;20193;-80
2021/12/22 12:54:40;;;;;;;18.02;12.18;;;3.00;99.90;;;;;;5075434;28;20213;-86
2021/12/22 12:57:27;;;;;;;17.38;13.32;;;3.00;99.90;;;;;;5075327;28;20199;-85
2021/12/22 13:00:05;;;;;;;17.75;12.23;;;3.10;99.90;;;;;;5075774;28;20181;-85
2021/12/22 13:02:35;;;;;;;20.48;11.95;;;3.10;99.90;;;;;;5075578;28;20193;-86
2021/12/22 13:05:07;;;;;;;16.88;11.40;;;3.20;99.90;;;;;;5075529;28;20182;-85
2021/12/22 13:07:34;;;;;;;15.75;10.95;;;3.30;99.90;;;;;;5065797;28;20656;-86
2021/12/22 13:10:03;;;;;;;15.38;11.80;;;3.40;99.90;;;;;;5075473;28;20251;-84